KFNL/FNL METAR and TAF weather

Enter ICAO airport designator
Station Type Date Time Source
KFNL METAR 2021/05/14 02:56 UTC NOAA

KFNL 140256Z 09003KT 10SM SCT120 17/04 A3010 RMK AO2 SLP157 6//// T01670044 53016 PNO $


Station Type Date Time Source
KFNL Decoded METAR 2021/05/14 02:56 UTC NOAA

Fort Collins/Loveland, Fort Collins-Loveland Municipal Airport, CO, United States (KFNL) 40-27N 105-01W
May 13, 2021 - 10:56 PM EDT / 2021.05.14 0256 UTC
Wind: from the E (090 degrees) at 3 MPH (3 KT):0
Visibility: 10 mile(s):0
Sky conditions: partly cloudy
Temperature: 62.1 F (16.7 C)
Dew Point: 39.9 F (4.4 C)
Relative Humidity: 43%
Pressure (altimeter): 30.1 in. Hg (1019 hPa)
Pressure tendency: 0.05 inches (1.6 hPa) higher than three hours ago
ob: KFNL 140256Z 09003KT 10SM SCT120 17/04 A3010 RMK AO2 SLP157 6//// T01670044 53016 PNO
cycle: 3

Station Type Date Time Source
KFNL TAF UTC NOAA

Error!

Example: see airport list